ADDS METAR Data INFO
IDs: Format: Raw Decoded Include TAF

Data at: 0210 UTC 14 Dec 2017

KOKK 140156Z AUTO 29023G32KT 10SM OVC024 01/M03 A2948 RMK AO2 PK WND 29037/0133 SLP993 T00061033 FZRANO
KOKK 140056Z AUTO 28026G36KT 10SM OVC022 02/M02 A2942 RMK AO2 PK WND 27036/0047 SLP970 T00221017 FZRANO
KOKK 132356Z AUTO 27026G32KT 10SM BKN026 OVC033 04/00 A2937 RMK AO2 PK WND 26032/2355 RAE05B35E53 SLP955 P0000 60000 T00390000 10039 20006 55006
KOKK 132256Z AUTO 24019G25KT 10SM -RA SCT016 OVC023 02/01 A2935 RMK AO2 UPE2157RAB2157 SLP948 P0000 T00220006 FZRANO
KOKK 132228Z AUTO 23021G25KT 10SM RA BKN026 OVC039 02/M01 A2935 RMK AO2 UPE2157RAB2157 P0000 FZRANO
KOKK 132156Z AUTO 23018G24KT 10SM UP OVC039 02/M02 A2936 RMK AO2 RAB2059E55UPB55SNE2059 SLP953 P0000 T00171017 FZRANO
KOKK 132121Z AUTO 22016G23KT 10SM -RA FEW017 OVC035 01/M01 A2937 RMK AO2 RAB2059SNE2059 P0000 FZRANO
KOKK 132056Z AUTO 23017KT 5SM -SN BR FEW011 BKN018 OVC024 01/M01 A2938 RMK AO2 PK WND 23040/2029 RAB19E33SNB33 SLP961 P0000 60000 T00061011 58017 FZRANO
KOKK 132052Z AUTO 23018KT 3SM -SN BR FEW011 BKN018 OVC030 01/M01 A2939 RMK AO2 PK WND 23040/2029 RAB19E33SNB33 P0000 FZRANO
KOKK 132043Z AUTO 23026G35KT 1 1/4SM -SN BR SCT011 BKN016 OVC026 01/M01 A2939 RMK AO2 PK WND 23040/2029 RAB19E33SNB33 P0000 FZRANO
KOKK 132036Z AUTO 22029G40KT 2SM -SN SCT013 BKN020 OVC031 02/M02 A2939 RMK AO2 PK WND 23040/2029 RAB19E33SNB33 P0000 FZRANO
KOKK 131956Z AUTO 21016G24KT 10SM BKN070 03/M07 A2939 RMK AO2 PK WND 21026/1912 SLP962 T00281067
KOKK 131856Z AUTO 20017G27KT 10SM CLR 02/M09 A2944 RMK AO2 PK WND 20027/1849 SLP979 T00171089 FZRANO
KOKK 131756Z AUTO 17020G32KT 10SM CLR 00/M11 A2944 RMK AO2 PK WND 17032/1750 PRESFR SLP980 T00001106 10000 21061 58092 FZRANO
KOKK 131656Z AUTO 18017G25KT 10SM BKN090 M01/M11 A2955 RMK AO2 SLP020 T10111106 FZRANO
KOKK 131556Z AUTO 18017G23KT 10SM BKN090 OVC100 M03/M11 A2964 RMK AO2 PRESFR SLP050 T10281111 FZRANO
KOKK 131456Z AUTO 18016KT 10SM BKN038 OVC075 M04/M11 A2971 RMK AO2 SLP077 T10391111 58038 FZRANO
KOKK 131356Z AUTO 17014KT 10SM OVC075 M05/M12 A2975 RMK AO2 SLP090 T10501117 FZRANO
KOKK 131256Z AUTO 18011KT 10SM OVC085 M06/M12 A2981 RMK AO2 SLP111 T10561117 FZRANO
KOKK 131156Z AUTO 18010KT 10SM OVC080 M06/M12 A2983 RMK AO2 SLP117 T10611117 11061 21089 56026 FZRANO
KOKK 131056Z AUTO 19009KT 10SM OVC080 M07/M12 A2985 RMK AO2 PRESFR SLP125 T10671117 FZRANO
KOKK 130956Z AUTO 18008KT 10SM SCT042 OVC070 M07/M12 A2988 RMK AO2 SLP133 T10721117 FZRANO
KOKK 130856Z AUTO 19007KT 10SM BKN048 OVC085 M08/M12 A2991 RMK AO2 SLP143 T10781122 56018 FZRANO
KOKK 130756Z AUTO 22006KT 10SM CLR M09/M13 A2992 RMK AO2 SLP146 T10891128 FZRANO
KOKK 130656Z AUTO 25008KT 10SM CLR M08/M12 A2994 RMK AO2 SLP155 T10781122 FZRANO
KOKK 130556Z AUTO 28005KT 10SM FEW075 BKN090 M08/M12 A2996 RMK AO2 SLP161 T10831122 11078 21089 58016 FZRANO
KOKK 130456Z AUTO 28009KT 10SM OVC085 M08/M12 A2999 RMK AO2 SLP169 T10831122 400111089 FZRANO TSNO
KOKK 130356Z AUTO 28010KT 10SM OVC080 M09/M12 A3000 RMK AO2 SLP174 T10891122 FZRANO
KOKK 130256Z AUTO 29011KT 10SM CLR M09/M12 A3001 RMK AO2 SLP178 T10891122 50000 FZRANO
KOKK 130156Z AUTO 30008KT 10SM CLR M08/M13 A3001 RMK AO2 SLP179 T10831128 FZRANO
KOKK 130056Z AUTO 30009KT 10SM CLR M08/M13 A3001 RMK AO2 SLP178 T10781128 FZRANO
KOKK 122356Z AUTO 29006KT 10SM CLR M08/M13 A3001 RMK AO2 SLP178 T10781133 11028 21078 51008 FZRANO
KOKK 122256Z AUTO 30011KT 10SM CLR M07/M14 A3001 RMK AO2 SLP177 T10671139 FZRANO
KOKK 122156Z AUTO 30015KT 10SM CLR M05/M13 A2999 RMK AO2 SLP169 T10501133 FZRANO
KOKK 122056Z AUTO 29018G22KT 10SM CLR M04/M13 A2999 RMK AO2 SLP165 T10391128 55002 FZRANO
KOKK 121956Z AUTO 29018KT 10SM SCT041 M03/M12 A2998 RMK AO2 SLP165 T10281122 FZRANO
KOKK 121856Z AUTO 30018G25KT 10SM BKN038 M03/M12 A2998 RMK AO2 SLP165 T10331117 FZRANO
KOKK 121756Z AUTO 30019G24KT 10SM BKN036 M03/M11 A2999 RMK AO2 SLP169 60000 T10281106 11028 21056 58004 FZRANO
KOKK 121656Z AUTO 29017KT 10SM FEW027 SCT041 BKN050 M03/M11 A3001 RMK AO2 SLP174 T10331111 FZRANO
KOKK 121556Z AUTO 32017G23KT 10SM FEW030 BKN048 M05/M11 A3002 RMK AO2 SNE39 SLP176 P0000 T10501106 FZRANO
KOKK 121538Z AUTO 31019G24KT 9SM -SN SCT024 BKN033 OVC050 M05/M11 A3001 RMK AO2 P0000 FZRANO
KOKK 121503Z AUTO 31015KT 6SM -SN FEW014 BKN024 OVC036 M06/M10 A3001 RMK AO2 P0000 FZRANO
KOKK 121456Z AUTO 32017KT 3SM -SN FEW014 SCT023 OVC030 M06/M10 A3000 RMK AO2 PK WND 29026/1428 SLP171 P0000 60000 T10561100 51013 FZRANO
KOKK 121454Z AUTO 30019KT 4SM -SN FEW014 BKN028 OVC034 M05/M10 A3000 RMK AO2 PK WND 29026/1428 P0000 FZRANO